地図

経路データ

SID SEASON NUMBER BASIN SUBBASIN NAME ISO_TIME NATURE LAT LON WMO_WIND WMO_PRES WMO_AGENCY TRACK_TYPE DIST2LAND LANDFALL IFLAG USA_AGENCY USA_ATCF_ID USA_LAT USA_LON USA_RECORD USA_STATUS USA_WIND USA_PRES USA_SSHS USA_R34_NE USA_R34_SE USA_R34_SW USA_R34_NW USA_R50_NE USA_R50_SE USA_R50_SW USA_R50_NW USA_R64_NE USA_R64_SE USA_R64_SW USA_R64_NW USA_POCI USA_ROCI USA_RMW USA_EYE TOKYO_LAT TOKYO_LON TOKYO_GRADE TOKYO_WIND TOKYO_PRES TOKYO_R50_DIR TOKYO_R50_LONG TOKYO_R50_SHORT TOKYO_R30_DIR TOKYO_R30_LONG TOKYO_R30_SHORT TOKYO_LAND CMA_LAT CMA_LON CMA_CAT CMA_WIND CMA_PRES HKO_LAT HKO_LON HKO_CAT HKO_WIND HKO_PRES NEWDELHI_LAT NEWDELHI_LON NEWDELHI_GRADE NEWDELHI_WIND NEWDELHI_PRES NEWDELHI_CI NEWDELHI_DP NEWDELHI_POCI REUNION_LAT REUNION_LON REUNION_TYPE REUNION_WIND REUNION_PRES REUNION_TNUM REUNION_CI REUNION_RMW REUNION_R34_NE REUNION_R34_SE REUNION_R34_SW REUNION_R34_NW REUNION_R50_NE REUNION_R50_SE REUNION_R50_SW REUNION_R50_NW REUNION_R64_NE REUNION_R64_SE REUNION_R64_SW REUNION_R64_NW BOM_LAT BOM_LON BOM_TYPE BOM_WIND BOM_PRES BOM_TNUM BOM_CI BOM_RMW BOM_R34_NE BOM_R34_SE BOM_R34_SW BOM_R34_NW BOM_R50_NE BOM_R50_SE BOM_R50_SW BOM_R50_NW BOM_R64_NE BOM_R64_SE BOM_R64_SW BOM_R64_NW BOM_ROCI BOM_POCI BOM_EYE BOM_POS_METHOD BOM_PRES_METHOD NADI_LAT NADI_LON NADI_CAT NADI_WIND NADI_PRES WELLINGTON_LAT WELLINGTON_LON WELLINGTON_WIND WELLINGTON_PRES DS824_LAT DS824_LON DS824_STAGE DS824_WIND DS824_PRES TD9636_LAT TD9636_LON TD9636_STAGE TD9636_WIND TD9636_PRES TD9635_LAT TD9635_LON TD9635_WIND TD9635_PRES TD9635_ROCI NEUMANN_LAT NEUMANN_LON NEUMANN_CLASS NEUMANN_WIND NEUMANN_PRES MLC_LAT MLC_LON MLC_CLASS MLC_WIND MLC_PRES USA_GUST BOM_GUST BOM_GUST_PER REUNION_GUST REUNION_GUST_PER USA_SEAHGT USA_SEARAD_NE USA_SEARAD_SE USA_SEARAD_SW USA_SEARAD_NW STORM_SPEED STORM_DIR
1895247N17087 1895 31 NI BB NOT_NAMED 1895-09-04 00:00:00 TS 16.8000 86.7000 main 315 300 _________O____ -1 16.8000 86.7000 TC 64 4 260
1895247N17087 1895 31 NI BB NOT_NAMED 1895-09-04 03:00:00 TS 16.7617 86.4750 main 300 277 _________PO___ -1 16.7426 86.3624 TC 64 16.8000 86.7000 4 6 262
1895247N17087 1895 31 NI BB NOT_NAMED 1895-09-04 06:00:00 TS 16.7247 86.1200 main 277 254 _________OP___ -1 16.7000 86.0000 TC 64 16.7618 86.2999 4 7 265
1895247N17087 1895 31 NI BB NOT_NAMED 1895-09-04 09:00:00 TS 16.7037 85.7328 main 246 225 _________PP___ -1 16.6850 85.6000 TC 64 16.7285 85.9099 4 7 268
1895247N17087 1895 31 NI BB NOT_NAMED 1895-09-04 12:00:00 TS 16.7030 85.3700 main 225 202 _________OP___ -1 16.7000 85.2000 TC 64 16.7060 85.5400 4 7 271
1895247N17087 1895 31 NI BB NOT_NAMED 1895-09-04 15:00:00 TS 16.7212 85.0175 main 202 177 _________PO___ -1 16.7424 84.8350 TC 64 16.7000 85.2000 4 6 275
1895247N17087 1895 31 NI BB NOT_NAMED 1895-09-04 18:00:00 TS 16.7578 84.6965 main 177 154 _________OP___ -1 16.8000 84.5000 TC 64 16.7156 84.8930 4 6 278
1895247N17087 1895 31 NI BB NOT_NAMED 1895-09-04 21:00:00 TS 16.7981 84.4123 main 154 123 _________PP___ -1 16.8422 84.2299 TC 64 16.7540 84.5947 4 6 280
1895247N17087 1895 31 NI BB NOT_NAMED 1895-09-05 00:00:00 TS 16.8577 84.0870 main 123 94 _________OP___ -1 16.9000 83.9000 TC 64 16.8154 84.2741 4 8 281
1895247N17087 1895 31 NI BB NOT_NAMED 1895-09-05 03:00:00 TS 16.9426 83.6400 main 89 54 _________PO___ -1 16.9852 83.3800 TC 64 16.9000 83.9000 4 10 282
1895247N17087 1895 31 NI BB NOT_NAMED 1895-09-05 06:00:00 TS 17.0541 83.1042 main 46 10 _________OP___ -1 17.1000 82.8000 TC 64 17.0081 83.4085 4 11 284
1895247N17087 1895 31 NI BB NOT_NAMED 1895-09-05 09:00:00 TS 17.1929 82.5715 main 10 0 _________PP___ -1 17.2499 82.2776 TC 64 17.1359 82.8655 4 10 286
1895247N17087 1895 31 NI BB NOT_NAMED 1895-09-05 12:00:00 TS 17.3353 82.0574 main 0 0 _________OP___ -1 17.4000 81.8000 TC 64 17.2706 82.3147 4 10 286
1895247N17087 1895 31 NI BB NOT_NAMED 1895-09-05 15:00:00 TS 17.4537 81.5887 main 0 0 _________PO___ -1 17.5074 81.3774 TC 55 17.4000 81.8000 4 8 284
1895247N17087 1895 31 NI BB NOT_NAMED 1895-09-05 18:00:00 TS 17.5408 81.2107 main 0 0 _________OP___ -1 17.6000 81.0000 TC 47 17.4815 81.4215 4 7 284
1895247N17087 1895 31 NI BB NOT_NAMED 1895-09-05 21:00:00 TS 17.6189 80.8828 main 0 0 _________PP___ -1 17.6771 80.6871 TC 38 17.5606 81.0784 4 7 286
1895247N17087 1895 31 NI BB NOT_NAMED 1895-09-06 00:00:00 TS 17.7298 80.5106 main 0 0 _________OP___ -1 17.8000 80.3000 TC 30 17.6595 80.7213 4 9 289
1895247N17087 1895 31 NI BB NOT_NAMED 1895-09-06 03:00:00 TS 17.9139 79.9938 main 0 0 _________PO___ -1 18.0277 79.6877 TC 30 17.8000 80.3000 1 12 291
1895247N17087 1895 31 NI BB NOT_NAMED 1895-09-06 06:00:00 TS 18.1557 79.3697 main 0 0 _________OP___ -1 18.3000 79.0000 TC 30 18.0115 79.7393 1 13 293
1895247N17087 1895 31 NI BB NOT_NAMED 1895-09-06 09:00:00 TS 18.4065 78.7478 main 0 0 _________PP___ -1 18.5498 78.3848 TC 30 18.2633 79.1108 1 13 293
1895247N17087 1895 31 NI BB NOT_NAMED 1895-09-06 12:00:00 TS 18.6666 78.1258 main 0 0 _________OP___ -1 18.8000 77.8000 TC 30 18.5333 78.4517 1 13 294
1895247N17087 1895 31 NI AS NOT_NAMED 1895-09-06 15:00:00 TS 18.9286 77.5249 main 0 0 _________PO___ -1 19.0572 77.2498 TC 30 18.8000 77.8000 1 12 294
1895247N17087 1895 31 NI AS NOT_NAMED 1895-09-06 18:00:00 TS 19.1554 76.9775 main 0 0 _________OP___ -1 19.3000 76.7000 TC 30 19.0469 77.1857 1 11 293
1895247N17087 1895 31 NI AS NOT_NAMED 1895-09-06 21:00:00 TS 19.3694 76.4084 main 0 0 _________PP___ -1 19.5105 76.1128 TC 30 19.2754 76.6054 1 11 291
1895247N17087 1895 31 NI AS NOT_NAMED 1895-09-07 00:00:00 TS 19.5608 75.8650 main 0 0 _________OP___ -1 19.7000 75.5000 TC 30 19.4912 76.0475 1 9 291
1895247N17087 1895 31 NI AS NOT_NAMED 1895-09-07 03:00:00 NR 19.7000 75.5000 main 0 __________O___ -1 TC 19.7000 75.5000 1 7 292

IBTrACS Databaseについて

本データベースは、米国NOAAが公開する1842年以降の世界の熱帯低気圧のベストトラックデータアーカイブInternational Best Track Archive for Climate Stewardship (IBTrACS)を、ウェブで閲覧しやすい形式に変換したものです。

最終更新日:2021-12-08